Time;durP1;ratioP1;P1;durP2;ratioP2;P2;SDS_P1;SDS_P2;PMS_P1;PMS_P2;Temp;Humidity;BMP_temperature;BMP_pressure;BME280_temperature;BME280_humidity;BME280_pressure;Samples;Min_cycle;Max_cycle;Signal;HPM_P1;HPM_P2
2023/09/26 00:01:13;;;;;;;10.67;4.70;;;15.50;26.00;;;;;;5053081;28;20195;-80
2023/09/26 00:03:40;;;;;;;4.70;4.20;;;15.50;1.00;;;;;;5034635;28;20213;-80
2023/09/26 00:06:18;;;;;;;9.83;5.63;;;15.40;1.00;;;;;;5053042;28;20419;-80
2023/09/26 00:08:44;;;;;;;8.30;4.47;;;15.40;99.90;;;;;;5036293;28;20439;-78
2023/09/26 00:11:09;;;;;;;4.93;4.10;;;15.40;46.70;;;;;;5051522;28;20929;-81
2023/09/26 00:13:35;;;;;;;8.40;4.57;;;15.40;99.90;;;;;;5034991;28;20683;-80
2023/09/26 00:16:00;;;;;;;7.83;4.57;;;15.40;99.90;;;;;;5055867;28;20174;-80
2023/09/26 00:18:26;;;;;;;7.00;4.10;;;15.40;99.90;;;;;;5053115;28;20178;-81
2023/09/26 00:20:51;;;;;;;5.80;3.77;;;15.40;38.60;;;;;;5033846;28;20182;-81
2023/09/26 00:23:17;;;;;;;8.17;4.60;;;15.30;62.70;;;;;;5053919;28;20251;-80
2023/09/26 00:25:44;;;;;;;6.57;4.37;;;15.30;33.00;;;;;;5051911;28;20212;-81
2023/09/26 00:28:10;;;;;;;5.70;4.40;;;15.30;99.90;;;;;;5053482;28;20174;-81
2023/09/26 00:30:35;;;;;;;7.23;4.50;;;15.30;51.70;;;;;;5052030;28;20944;-80
2023/09/26 00:33:01;;;;;;;6.73;3.90;;;15.30;80.90;;;;;;5052294;28;20216;-79
2023/09/26 00:35:26;;;;;;;6.43;4.20;;;15.30;28.70;;;;;;5035418;28;20190;-80
2023/09/26 00:37:52;;;;;;;6.67;4.43;;;15.30;99.90;;;;;;5052969;28;20194;-79
2023/09/26 00:40:22;;;;;;;6.70;4.40;;;15.20;82.40;;;;;;5034245;28;20572;-80
2023/09/26 00:42:47;;;;;;;5.37;4.37;;;15.20;18.70;;;;;;5057860;28;20217;-80
2023/09/26 00:45:13;;;;;;;5.73;4.50;;;15.20;99.90;;;;;;5051758;28;20472;-81
2023/09/26 00:47:40;;;;;;;7.13;3.93;;;15.20;99.90;;;;;;5034187;28;20525;-81
2023/09/26 00:50:13;;;;;;;9.63;4.80;;;15.10;99.90;;;;;;5048628;28;20257;-81
2023/09/26 00:52:47;;;;;;;4.73;3.90;;;15.00;11.60;;;;;;5046921;28;20479;-80
2023/09/26 00:55:17;;;;;;;7.57;4.27;;;14.90;1.00;;;;;;5049208;28;20436;-79
2023/09/26 00:57:43;;;;;;;6.63;4.40;;;14.90;1.00;;;;;;5032141;28;20876;-80
2023/09/26 01:00:12;;;;;;;9.03;4.40;;;14.90;48.50;;;;;;5051513;28;20436;-79
2023/09/26 01:02:39;;;;;;;6.77;4.53;;;14.90;99.90;;;;;;5032918;28;20467;-79
2023/09/26 01:05:06;;;;;;;5.60;4.30;;;14.90;1.00;;;;;;5052045;28;20498;-82
2023/09/26 01:07:33;;;;;;;4.63;4.00;;;14.80;59.00;;;;;;5051950;28;20443;-79
2023/09/26 01:10:00;;;;;;;5.53;4.20;;;14.80;11.20;;;;;;5050272;28;20460;-80
2023/09/26 01:12:27;;;;;;;11.93;4.33;;;14.80;99.90;;;;;;5033183;28;20843;-80
2023/09/26 01:14:53;;;;;;;7.10;3.87;;;14.80;99.90;;;;;;5049961;28;20564;-81
2023/09/26 01:17:18;;;;;;;8.30;4.70;;;14.80;99.90;;;;;;5050908;28;20444;-78
2023/09/26 01:19:44;;;;;;;8.57;4.50;;;14.70;99.90;;;;;;5032765;28;20443;-79
2023/09/26 01:22:09;;;;;;;9.13;5.00;;;14.60;30.30;;;;;;5051398;28;20210;-80
2023/09/26 01:24:37;;;;;;;4.73;3.33;;;14.50;99.90;;;;;;5037402;28;20209;-81
2023/09/26 01:27:04;;;;;;;7.80;4.37;;;14.60;99.90;;;;;;5050665;28;20783;-80
2023/09/26 01:29:29;;;;;;;8.00;4.70;;;14.50;99.90;;;;;;5034532;28;20443;-80
2023/09/26 01:31:55;;;;;;;7.60;4.60;;;14.50;1.00;;;;;;5033945;28;20452;-81
2023/09/26 01:34:20;;;;;;;7.50;4.40;;;14.50;1.00;;;;;;5051755;28;20201;-80
2023/09/26 01:36:46;;;;;;;8.30;4.10;;;14.40;1.00;;;;;;5034111;28;20587;-80
2023/09/26 01:39:12;;;;;;;7.37;4.43;;;14.50;99.90;;;;;;5034494;28;20178;-81
2023/09/26 01:41:38;;;;;;;5.63;3.70;;;;;;;;;;5054130;28;20185;-81
2023/09/26 01:44:05;;;;;;;5.57;4.40;;;14.50;1.00;;;;;;5052241;28;20468;-81
2023/09/26 01:46:30;;;;;;;7.30;3.67;;;14.40;99.90;;;;;;5051876;28;20432;-80
2023/09/26 01:48:56;;;;;;;9.97;4.23;;;14.40;1.00;;;;;;5052051;28;20519;-80
2023/09/26 01:51:21;;;;;;;6.97;4.00;;;14.30;1.00;;;;;;5051618;28;20244;-80
2023/09/26 01:53:48;;;;;;;5.33;3.30;;;14.20;99.90;;;;;;5051143;28;20770;-80
2023/09/26 01:56:13;;;;;;;5.20;3.27;;;14.20;99.90;;;;;;5050620;28;20188;-79
2023/09/26 01:58:39;;;;;;;5.73;3.47;;;14.20;30.00;;;;;;5051374;28;20962;-80
2023/09/26 02:01:05;;;;;;;7.00;3.43;;;14.20;36.50;;;;;;5053638;28;20682;-79
2023/09/26 02:03:31;;;;;;;11.30;4.10;;;14.20;1.00;;;;;;5056195;28;20202;-80
2023/09/26 02:05:58;;;;;;;5.63;3.20;;;14.30;99.90;;;;;;5037525;28;20467;-80
2023/09/26 02:08:23;;;;;;;5.97;3.80;;;14.30;99.90;;;;;;5055424;28;20170;-80
2023/09/26 02:10:49;;;;;;;5.73;3.60;;;14.30;99.90;;;;;;5055968;28;20493;-81
2023/09/26 02:13:14;;;;;;;4.77;3.00;;;14.30;99.90;;;;;;5058544;28;20574;-80
2023/09/26 02:15:40;;;;;;;7.90;3.60;;;14.30;99.90;;;;;;5035318;28;20190;-80
2023/09/26 02:18:06;;;;;;;4.93;3.43;;;14.30;1.00;;;;;;5054499;28;20774;-80
2023/09/26 02:20:31;;;;;;;5.03;3.30;;;14.30;1.00;;;;;;5036436;28;20182;-81
2023/09/26 02:22:57;;;;;;;3.90;3.10;;;14.30;1.00;;;;;;5054798;28;20719;-80
2023/09/26 02:25:23;;;;;;;6.37;2.67;;;14.30;1.00;;;;;;5053677;28;20565;-81
2023/09/26 02:27:50;;;;;;;6.13;3.17;;;14.30;1.00;;;;;;5035220;28;20436;-81
2023/09/26 02:30:23;;;;;;;5.20;3.80;;;14.30;99.90;;;;;;5052298;28;20582;-80
2023/09/26 02:32:49;;;;;;;5.03;3.10;;;14.30;99.90;;;;;;5035755;28;20490;-80
2023/09/26 02:35:16;;;;;;;4.70;3.23;;;14.30;99.90;;;;;;5047535;28;20468;-81
2023/09/26 02:37:42;;;;;;;4.23;3.03;;;14.20;99.90;;;;;;5054204;28;20194;-79
2023/09/26 02:40:09;;;;;;;5.77;3.77;;;14.20;99.90;;;;;;5053301;28;20443;-78
2023/09/26 02:42:36;;;;;;;5.27;3.30;;;14.20;99.90;;;;;;5054122;28;20455;-80
2023/09/26 02:45:02;;;;;;;7.53;3.13;;;14.20;1.00;;;;;;5050998;28;20555;-79
2023/09/26 02:47:28;;;;;;;8.47;3.40;;;14.10;1.00;;;;;;5055991;28;20455;-79
2023/09/26 02:49:54;;;;;;;6.23;3.57;;;14.10;1.00;;;;;;5052439;28;20429;-80
2023/09/26 02:52:21;;;;;;;3.80;3.03;;;14.10;1.00;;;;;;5054020;28;20467;-79
2023/09/26 02:54:47;;;;;;;4.43;2.93;;;14.10;1.00;;;;;;5034732;28;20463;-80
2023/09/26 02:57:13;;;;;;;5.83;3.70;;;14.00;1.00;;;;;;5053806;28;20440;-79
2023/09/26 02:59:38;;;;;;;9.00;3.27;;;14.10;1.00;;;;;;5053339;28;20190;-79
2023/09/26 03:02:04;;;;;;;5.90;3.33;;;14.00;1.00;;;;;;5034328;28;20288;-81
2023/09/26 03:04:29;;;;;;;3.97;3.10;;;14.00;1.00;;;;;;5058322;28;20653;-79
2023/09/26 03:06:55;;;;;;;3.80;3.30;;;13.90;1.00;;;;;;5054088;28;20256;-80
2023/09/26 03:09:20;;;;;;;7.50;4.10;;;13.80;99.90;;;;;;5055376;28;20549;-80
2023/09/26 03:11:46;;;;;;;6.93;3.73;;;13.70;99.90;;;;;;5053821;28;20182;-81
2023/09/26 03:14:11;;;;;;;7.27;3.80;;;13.60;99.90;;;;;;5054201;28;20966;-80
2023/09/26 03:16:38;;;;;;;5.07;4.40;;;13.60;1.00;;;;;;5037039;28;20190;-80
2023/09/26 03:19:05;;;;;;;4.40;3.80;;;13.50;99.90;;;;;;5035397;28;20562;-79
2023/09/26 03:21:31;;;;;;;6.30;4.43;;;13.50;1.00;;;;;;5053893;28;20443;-80
2023/09/26 03:23:57;;;;;;;5.63;4.10;;;13.40;1.00;;;;;;5052423;28;20957;-80
2023/09/26 03:26:22;;;;;;;5.77;4.20;;;13.40;1.00;;;;;;5037034;28;20276;-79
2023/09/26 03:28:48;;;;;;;5.50;3.40;;;;;;;;;;5054312;28;20178;-80
2023/09/26 03:31:14;;;;;;;7.53;4.13;;;13.30;1.00;;;;;;5054163;28;20189;-79
2023/09/26 03:33:40;;;;;;;4.23;3.30;;;13.40;1.00;;;;;;5054064;28;20468;-79
2023/09/26 03:36:06;;;;;;;4.20;3.53;;;;;;;;;;5034157;28;20827;-82
2023/09/26 03:38:34;;;;;;;5.40;4.10;;;13.50;99.90;;;;;;5054274;28;20178;-80
2023/09/26 03:41:01;;;;;;;6.27;3.07;;;13.50;99.90;;;;;;5033763;28;20482;-79
2023/09/26 03:43:27;;;;;;;6.20;3.30;;;13.60;99.90;;;;;;5062883;28;20439;-80
2023/09/26 03:46:06;;;;;;;3.67;3.20;;;12.90;1.00;;;;;;5055127;28;20529;-80
2023/09/26 03:48:32;;;;;;;5.67;3.47;;;13.60;99.90;;;;;;5052953;28;20428;-79
2023/09/26 03:51:08;;;;;;;5.80;3.57;;;13.60;99.90;;;;;;5052565;28;20412;-81
2023/09/26 03:53:34;;;;;;;4.43;4.03;;;;;;;;;;5060241;28;20464;-79
2023/09/26 03:56:00;;;;;;;8.97;3.73;;;13.50;99.90;;;;;;5052985;28;20890;-80
2023/09/26 03:58:25;;;;;;;7.83;4.07;;;13.30;99.90;;;;;;5034775;28;20443;-78
2023/09/26 04:00:51;;;;;;;5.50;4.33;;;13.40;1.00;;;;;;5049262;28;20190;-80
2023/09/26 04:03:16;;;;;;;4.83;3.70;;;13.30;99.90;;;;;;5035228;28;20206;-81
2023/09/26 04:05:46;;;;;;;4.93;3.30;;;13.30;1.00;;;;;;5053139;28;20304;-80
2023/09/26 04:08:13;;;;;;;4.57;3.10;;;13.30;89.50;;;;;;5052627;28;20186;-78
2023/09/26 04:10:39;;;;;;;4.70;3.30;;;13.30;99.90;;;;;;5052865;28;20805;-79
2023/09/26 04:13:04;;;;;;;4.83;4.17;;;13.30;99.90;;;;;;5052000;28;20460;-79
2023/09/26 04:15:30;;;;;;;4.70;3.70;;;;;;;;;;5034041;28;20454;-79
2023/09/26 04:17:56;;;;;;;5.70;4.40;;;;;;;;;;5031906;28;20193;-79
2023/09/26 04:20:23;;;;;;;7.90;3.80;;;13.30;99.90;;;;;;5051773;28;20441;-79
2023/09/26 04:22:49;;;;;;;4.80;3.77;;;13.20;99.90;;;;;;5050783;28;20466;-80
2023/09/26 04:25:14;;;;;;;5.23;3.37;;;13.10;1.00;;;;;;5030284;28;20465;-80
2023/09/26 04:27:40;;;;;;;9.70;5.13;;;13.10;1.00;;;;;;5055451;28;20498;-80
2023/09/26 04:30:07;;;;;;;11.23;4.57;;;13.10;99.90;;;;;;5050533;28;20253;-80
2023/09/26 04:32:32;;;;;;;9.13;4.50;;;12.90;1.00;;;;;;5033167;28;20256;-79
2023/09/26 04:34:58;;;;;;;9.00;4.00;;;12.80;19.40;;;;;;5050586;28;20448;-80
2023/09/26 04:37:23;;;;;;;4.90;3.87;;;12.80;1.00;;;;;;5053227;28;20186;-80
2023/09/26 04:39:49;;;;;;;6.10;4.67;;;12.80;1.00;;;;;;5051653;28;20674;-80
2023/09/26 04:42:15;;;;;;;4.70;3.63;;;;;;;;;;5051722;28;20216;-80
2023/09/26 04:44:40;;;;;;;10.40;4.40;;;12.80;1.00;;;;;;5051641;28;20206;-80
2023/09/26 04:47:06;;;;;;;12.43;4.23;;;12.80;1.00;;;;;;5034836;28;20468;-79
2023/09/26 04:49:34;;;;;;;6.40;4.00;;;;;;;;;;5034254;28;20196;-79
2023/09/26 04:52:01;;;;;;;5.20;3.90;;;12.80;1.00;;;;;;5054591;28;20209;-79
2023/09/26 04:54:26;;;;;;;10.03;3.67;;;12.80;1.00;;;;;;5051079;28;20437;-80
2023/09/26 04:56:52;;;;;;;7.13;4.50;;;12.80;1.00;;;;;;5051263;28;20468;-80
2023/09/26 04:59:17;;;;;;;5.90;3.97;;;13.00;1.00;;;;;;5052555;28;20273;-81
2023/09/26 05:01:45;;;;;;;6.60;4.47;;;;;;;;;;5052759;28;20256;-80
2023/09/26 05:04:11;;;;;;;14.43;3.77;;;12.70;1.00;;;;;;5051112;28;20284;-80
2023/09/26 05:06:36;;;;;;;6.97;3.90;;;12.80;1.00;;;;;;5051263;28;20811;-80
2023/09/26 05:09:02;;;;;;;11.33;4.00;;;12.80;1.00;;;;;;5049889;28;20178;-80
2023/09/26 05:11:27;;;;;;;12.53;4.27;;;12.80;1.00;;;;;;5036830;28;20182;-80
2023/09/26 05:13:53;;;;;;;5.73;4.03;;;12.80;99.90;;;;;;5051828;28;20257;-80
2023/09/26 05:16:19;;;;;;;8.93;4.00;;;12.70;99.90;;;;;;5051713;28;20448;-80
2023/09/26 05:18:44;;;;;;;8.87;4.47;;;12.80;99.90;;;;;;5051444;28;20174;-81
2023/09/26 05:21:11;;;;;;;6.63;4.20;;;12.80;1.00;;;;;;5050801;28;20260;-78
2023/09/26 05:23:37;;;;;;;5.83;4.07;;;12.80;1.00;;;;;;5032692;28;20252;-80
2023/09/26 05:26:09;;;;;;;8.67;4.03;;;12.80;1.00;;;;;;5050570;28;20980;-79
2023/09/26 05:28:35;;;;;;;9.73;4.77;;;12.90;1.00;;;;;;5051198;28;20265;-79
2023/09/26 05:31:01;;;;;;;7.20;4.43;;;12.90;1.00;;;;;;5049174;28;21009;-78
2023/09/26 05:33:27;;;;;;;6.07;4.30;;;12.90;1.00;;;;;;5049029;28;20289;-79
2023/09/26 05:35:53;;;;;;;5.40;4.17;;;12.90;1.00;;;;;;5051368;28;20559;-80
2023/09/26 05:38:20;;;;;;;9.80;4.63;;;13.00;99.90;;;;;;5055426;28;20443;-79
2023/09/26 05:40:46;;;;;;;12.40;4.40;;;13.10;99.90;;;;;;5053219;28;20524;-80
2023/09/26 05:43:11;;;;;;;7.07;4.27;;;13.20;99.90;;;;;;5051123;28;20459;-80
2023/09/26 05:45:37;;;;;;;6.70;4.10;;;13.30;3.70;;;;;;5057956;28;20486;-80
2023/09/26 05:48:04;;;;;;;7.67;4.00;;;13.30;1.00;;;;;;5035463;28;20227;-80
2023/09/26 05:50:30;;;;;;;9.90;4.10;;;13.40;1.00;;;;;;5053062;28;20188;-80
2023/09/26 05:52:55;;;;;;;8.83;4.70;;;13.40;99.90;;;;;;5053188;28;20464;-79
2023/09/26 05:55:21;;;;;;;9.17;4.27;;;13.60;1.00;;;;;;5053254;28;20908;-80
2023/09/26 05:57:46;;;;;;;7.37;4.30;;;13.60;1.00;;;;;;5054664;28;20178;-80
2023/09/26 06:00:12;;;;;;;7.63;4.27;;;13.60;99.90;;;;;;5051583;28;20198;-79
2023/09/26 06:02:39;;;;;;;8.80;4.27;;;13.70;79.20;;;;;;5054592;28;20197;-80
2023/09/26 06:05:05;;;;;;;17.00;4.03;;;14.10;99.90;;;;;;5056824;28;20618;-80
2023/09/26 06:07:30;;;;;;;5.37;3.77;;;16.20;1.00;;;;;;5057910;28;20933;-80
2023/09/26 06:09:56;;;;;;;7.67;3.80;;;19.20;58.70;;;;;;5063741;28;20431;-80
2023/09/26 06:12:21;;;;;;;7.60;3.37;;;20.80;1.00;;;;;;5057836;28;20225;-81
2023/09/26 06:14:47;;;;;;;4.73;3.10;;;22.40;1.00;;;;;;5057763;28;20208;-81
2023/09/26 06:17:12;;;;;;;4.50;3.20;;;24.00;99.90;;;;;;5053925;28;20818;-81
2023/09/26 06:19:39;;;;;;;10.40;3.07;;;25.50;99.90;;;;;;5042623;28;20701;-80
2023/09/26 06:22:05;;;;;;;8.40;3.30;;;24.90;99.90;;;;;;5059514;28;20194;-80
2023/09/26 06:24:31;;;;;;;5.63;3.30;;;24.70;99.90;;;;;;5057671;28;20471;-81
2023/09/26 06:26:56;;;;;;;8.20;3.33;;;24.70;99.90;;;;;;5058153;28;20426;-81
2023/09/26 06:29:22;;;;;;;9.40;3.57;;;25.90;99.90;;;;;;5057804;28;20177;-80
2023/09/26 06:31:47;;;;;;;4.60;3.27;;;26.90;99.90;;;;;;5057238;28;20184;-81
2023/09/26 06:34:13;;;;;;;5.33;3.20;;;27.30;99.90;;;;;;5039100;28;20191;-82
2023/09/26 06:36:39;;;;;;;5.03;3.33;;;26.80;99.90;;;;;;5037231;28;20185;-81
2023/09/26 06:39:04;;;;;;;5.67;3.20;;;26.80;99.90;;;;;;5055928;28;20450;-81
2023/09/26 06:41:30;;;;;;;4.00;3.00;;;26.80;99.90;;;;;;5036251;28;20193;-82
2023/09/26 06:43:56;;;;;;;5.67;3.00;;;28.50;99.90;;;;;;5051233;28;20198;-82
2023/09/26 06:46:21;;;;;;;7.67;2.97;;;29.70;1.00;;;;;;5062369;28;20230;-80
2023/09/26 06:48:47;;;;;;;4.10;2.70;;;31.20;99.90;;;;;;5057270;28;20731;-82
2023/09/26 06:51:12;;;;;;;4.70;3.07;;;32.00;99.90;;;;;;5054307;28;20240;-81
2023/09/26 06:53:38;;;;;;;7.87;2.80;;;33.70;99.90;;;;;;5052158;28;20584;-81
2023/09/26 06:56:06;;;;;;;6.43;2.77;;;35.20;99.90;;;;;;5051905;28;20261;-81
2023/09/26 06:58:33;;;;;;;8.03;2.70;;;36.40;99.90;;;;;;5049884;28;20209;-82
2023/09/26 07:00:58;;;;;;;6.30;2.80;;;36.80;99.90;;;;;;5051616;28;20424;-82
2023/09/26 07:03:27;;;;;;;10.13;4.03;;;36.90;99.90;;;;;;5053992;28;20913;-82
2023/09/26 07:05:53;;;;;;;11.60;2.90;;;37.00;99.90;;;;;;5053630;28;20194;-82
2023/09/26 07:08:19;;;;;;;7.70;3.27;;;36.70;99.90;;;;;;5034968;28;21033;-82
2023/09/26 07:10:45;;;;;;;8.40;3.00;;;37.20;99.90;;;;;;5051322;28;20459;-84
2023/09/26 07:13:12;;;;;;;2.97;2.20;;;37.90;99.90;;;;;;5055536;28;20498;-83
2023/09/26 07:15:37;;;;;;;4.70;2.70;;;38.10;99.90;;;;;;5053923;28;20436;-81
2023/09/26 07:18:06;;;;;;;4.90;2.43;;;37.50;99.90;;;;;;5054222;28;20436;-82
2023/09/26 07:20:33;;;;;;;2.90;2.23;;;36.80;99.90;;;;;;5051964;28;20186;-80
2023/09/26 07:22:59;;;;;;;4.40;2.60;;;37.20;99.90;;;;;;5052242;28;20444;-81
2023/09/26 07:25:25;;;;;;;4.37;2.63;;;37.80;99.90;;;;;;5057761;28;20420;-80
2023/09/26 07:27:50;;;;;;;4.93;2.43;;;39.40;99.90;;;;;;5051370;28;20581;-81
2023/09/26 07:30:16;;;;;;;3.90;2.57;;;40.80;99.90;;;;;;5051751;28;20676;-81
2023/09/26 07:32:42;;;;;;;5.47;2.83;;;41.80;99.90;;;;;;5051661;28;20244;-80
2023/09/26 07:35:08;;;;;;;4.47;2.47;;;42.60;99.90;;;;;;5062620;28;20292;-81
2023/09/26 07:37:34;;;;;;;3.17;2.23;;;;;;;;;;5058482;28;20193;-84
2023/09/26 07:40:03;;;;;;;5.00;2.33;;;42.00;99.90;;;;;;5052842;28;20441;-84
2023/09/26 07:42:28;;;;;;;5.27;2.80;;;43.10;99.90;;;;;;5057566;28;20471;-83
2023/09/26 07:44:58;;;;;;;3.77;2.60;;;42.60;99.90;;;;;;5051450;28;20995;-81
2023/09/26 07:47:23;;;;;;;2.67;2.20;;;44.10;99.90;;;;;;5053501;28;20246;-83
2023/09/26 07:49:49;;;;;;;3.07;2.30;;;44.80;99.90;;;;;;5056791;28;20467;-81
2023/09/26 07:52:15;;;;;;;2.87;2.33;;;45.10;99.90;;;;;;5054089;28;20323;-81
2023/09/26 07:54:40;;;;;;;2.83;2.50;;;44.80;99.90;;;;;;5056418;28;20202;-82
2023/09/26 07:57:06;;;;;;;10.53;2.30;;;44.40;99.90;;;;;;5055840;28;20186;-82
2023/09/26 07:59:31;;;;;;;4.80;2.30;;;43.80;99.90;;;;;;5056229;28;20655;-82
2023/09/26 08:01:57;;;;;;;2.60;2.13;;;43.00;99.90;;;;;;5055939;28;20201;-82
2023/09/26 08:04:23;;;;;;;2.87;2.13;;;42.30;99.90;;;;;;5053782;28;20183;-82
2023/09/26 08:06:48;;;;;;;6.80;2.50;;;43.40;99.90;;;;;;5057980;28;20201;-82
2023/09/26 08:09:15;;;;;;;6.60;1.90;;;42.80;99.90;;;;;;5049515;28;20995;-82
2023/09/26 08:11:41;;;;;;;3.57;2.20;;;44.00;99.90;;;;;;5050027;28;20182;-81
2023/09/26 08:14:07;;;;;;;2.60;2.30;;;44.70;99.90;;;;;;5054994;28;20741;-81
2023/09/26 08:16:33;;;;;;;5.17;2.37;;;44.50;99.90;;;;;;5057427;28;20451;-82
2023/09/26 08:18:58;;;;;;;4.37;2.50;;;43.80;99.90;;;;;;5037169;28;20428;-81
2023/09/26 08:21:26;;;;;;;4.90;2.30;;;42.50;99.50;;;;;;5050785;28;20193;-81
2023/09/26 08:23:52;;;;;;;3.67;2.13;;;42.40;99.80;;;;;;5049060;28;20326;-82
2023/09/26 08:26:17;;;;;;;6.53;2.47;;;41.60;99.20;;;;;;5048123;28;20874;-82
2023/09/26 08:28:43;;;;;;;3.90;2.23;;;41.20;99.90;;;;;;5030199;28;20269;-81
2023/09/26 08:31:10;;;;;;;3.80;2.30;;;40.80;99.10;;;;;;5049925;28;20178;-82
2023/09/26 08:33:36;;;;;;;3.10;2.47;;;40.40;99.90;;;;;;5038826;28;20212;-83
2023/09/26 08:36:11;;;;;;;3.20;2.20;;;40.90;99.90;;;;;;5053720;28;20460;-83
2023/09/26 08:38:37;;;;;;;4.17;2.50;;;41.00;99.90;;;;;;5054501;28;20424;-83
2023/09/26 08:41:05;;;;;;;3.00;2.33;;;42.30;99.90;;;;;;5045710;28;20778;-83
2023/09/26 08:43:32;;;;;;;3.07;1.90;;;42.30;99.90;;;;;;5036111;28;20209;-83
2023/09/26 08:45:58;;;;;;;5.50;2.17;;;42.30;99.90;;;;;;5062196;28;20472;-83
2023/09/26 08:48:24;;;;;;;2.27;1.97;;;43.50;99.90;;;;;;5046963;28;20548;-82
2023/09/26 08:50:51;;;;;;;4.60;2.20;;;43.70;99.90;;;;;;5048878;28;20515;-83
2023/09/26 08:53:16;;;;;;;3.80;1.90;;;43.80;99.90;;;;;;5049751;28;20296;-82
2023/09/26 08:55:43;;;;;;;3.93;2.20;;;43.00;99.90;;;;;;5053043;28;20583;-80
2023/09/26 08:58:09;;;;;;;5.10;2.33;;;43.80;99.90;;;;;;5048540;28;20177;-82
2023/09/26 09:00:35;;;;;;;4.27;2.70;;;43.20;99.90;;;;;;5052989;28;20928;-80
2023/09/26 09:03:00;;;;;;;5.43;2.23;;;43.30;99.90;;;;;;5044039;28;20210;-82
2023/09/26 09:05:26;;;;;;;2.17;1.97;;;43.90;99.90;;;;;;5056399;28;20193;-82
2023/09/26 09:07:51;;;;;;;3.77;2.50;;;42.50;99.40;;;;;;5049508;28;20190;-82
2023/09/26 09:10:17;;;;;;;2.60;1.93;;;40.80;94.80;;;;;;5053949;28;20182;-81
2023/09/26 09:12:47;;;;;;;3.17;2.40;;;40.80;95.00;;;;;;5052484;28;20288;-81
2023/09/26 09:15:16;;;;;;;2.73;2.07;;;41.30;97.70;;;;;;5049044;28;20256;-80
2023/09/26 09:17:48;;;;;;;2.80;1.83;;;41.50;99.10;;;;;;5053252;28;20433;-81
2023/09/26 09:20:26;;;;;;;3.20;2.00;;;41.70;99.90;;;;;;5033613;28;20970;-81
2023/09/26 09:23:02;;;;;;;2.30;1.93;;;42.50;99.90;;;;;;5052119;28;20452;-82
2023/09/26 09:25:33;;;;;;;2.33;1.83;;;42.40;99.90;;;;;;5050962;28;20435;-81
2023/09/26 09:27:59;;;;;;;2.37;1.83;;;42.70;99.90;;;;;;5049394;28;20871;-80
2023/09/26 09:30:25;;;;;;;2.97;2.17;;;42.90;99.90;;;;;;5045990;28;20440;-83
2023/09/26 09:32:50;;;;;;;3.60;2.00;;;43.50;99.90;;;;;;5030513;28;20463;-82
2023/09/26 09:35:18;;;;;;;5.83;2.10;;;44.70;99.90;;;;;;5032766;28;20213;-82
2023/09/26 09:37:46;;;;;;;2.60;2.10;;;45.90;99.90;;;;;;5050375;28;20608;-82
2023/09/26 09:40:20;;;;;;;7.10;2.23;;;46.50;99.90;;;;;;5049443;28;20420;-83
2023/09/26 09:42:48;;;;;;;3.80;2.50;;;46.90;99.90;;;;;;5050150;28;20455;-82
2023/09/26 09:45:14;;;;;;;3.87;2.13;;;45.20;99.90;;;;;;5057454;28;20476;-80
2023/09/26 09:47:42;;;;;;;2.50;1.90;;;44.40;99.90;;;;;;5051571;28;20436;-83
2023/09/26 09:50:08;;;;;;;3.60;2.40;;;44.50;99.90;;;;;;5049561;28;20195;-83
2023/09/26 09:52:35;;;;;;;2.83;2.17;;;45.70;99.90;;;;;;5025332;28;20889;-81
2023/09/26 09:55:07;;;;;;;5.93;2.17;;;46.50;99.90;;;;;;5044308;28;20201;-81
2023/09/26 09:57:33;;;;;;;3.70;2.20;;;45.90;99.90;;;;;;5048506;28;20433;-81
2023/09/26 10:00:00;;;;;;;6.73;2.30;;;45.20;99.90;;;;;;5045280;28;20432;-81
2023/09/26 10:02:26;;;;;;;2.27;2.07;;;43.50;99.90;;;;;;5042463;28;20471;-82
2023/09/26 10:04:55;;;;;;;3.50;2.50;;;44.00;99.90;;;;;;5047320;28;20454;-82
2023/09/26 10:07:24;;;;;;;3.57;2.23;;;44.40;99.90;;;;;;5031307;28;20217;-81
2023/09/26 10:09:52;;;;;;;2.80;2.50;;;45.20;99.90;;;;;;5050381;28;20428;-80
2023/09/26 10:12:19;;;;;;;3.63;2.47;;;44.60;99.90;;;;;;5053206;28;20486;-80
2023/09/26 10:14:44;;;;;;;6.73;2.40;;;43.60;99.90;;;;;;5052264;28;20621;-81
2023/09/26 10:17:10;;;;;;;5.30;2.23;;;42.50;99.90;;;;;;5032232;28;20523;-81
2023/09/26 10:19:39;;;;;;;4.23;2.57;;;42.70;99.90;;;;;;5048111;28;20216;-81
2023/09/26 10:22:15;;;;;;;2.80;1.80;;;41.20;99.90;;;;;;5047237;28;20205;-80
2023/09/26 10:24:52;;;;;;;3.83;2.10;;;40.10;99.90;;;;;;5050637;28;21066;-80
2023/09/26 10:27:38;;;;;;;2.73;2.10;;;39.20;99.90;;;;;;5051769;28;20783;-83
2023/09/26 10:30:06;;;;;;;5.87;2.67;;;38.60;99.90;;;;;;5051441;28;20439;-81
2023/09/26 10:32:34;;;;;;;2.87;2.10;;;39.60;99.90;;;;;;5049809;28;20495;-78
2023/09/26 10:35:15;;;;;;;7.07;2.43;;;40.10;99.90;;;;;;5048521;28;20495;-82
2023/09/26 10:37:45;;;;;;;5.53;2.63;;;40.70;99.90;;;;;;5052080;28;20467;-81
2023/09/26 10:40:15;;;;;;;4.13;2.60;;;39.80;99.90;;;;;;5053104;28;20428;-82
2023/09/26 10:42:45;;;;;;;4.37;2.63;;;39.10;99.90;;;;;;5051182;28;21609;-82
2023/09/26 10:45:11;;;;;;;4.70;2.33;;;39.10;99.90;;;;;;5053721;28;20436;-81
2023/09/26 10:47:39;;;;;;;6.67;2.23;;;39.00;99.90;;;;;;5054874;28;20472;-81
2023/09/26 10:50:14;;;;;;;3.50;1.93;;;39.00;99.90;;;;;;5056202;28;20182;-83
2023/09/26 10:52:47;;;;;;;3.90;2.00;;;38.80;99.90;;;;;;5053274;28;20610;-81
2023/09/26 10:55:20;;;;;;;3.53;1.80;;;38.80;99.90;;;;;;5055350;28;20517;-80
2023/09/26 10:57:46;;;;;;;4.33;2.07;;;39.70;99.90;;;;;;5067883;28;20436;-84
2023/09/26 11:00:13;;;;;;;2.73;1.80;;;40.70;99.90;;;;;;5058516;28;20511;-80
2023/09/26 11:02:41;;;;;;;2.80;1.40;;;39.90;99.90;;;;;;5058539;28;20452;-80
2023/09/26 11:05:12;;;;;;;3.00;1.70;;;40.30;99.90;;;;;;5053486;28;20937;-81
2023/09/26 11:07:38;;;;;;;6.57;2.00;;;40.80;99.90;;;;;;5050620;28;20581;-82
2023/09/26 11:10:05;;;;;;;2.60;2.10;;;41.30;99.90;;;;;;5050152;28;20443;-78
2023/09/26 11:12:31;;;;;;;8.33;1.70;;;41.00;99.90;;;;;;5051534;28;20481;-81
2023/09/26 11:14:59;;;;;;;4.53;2.23;;;40.40;99.90;;;;;;5052365;28;20837;-81
2023/09/26 11:17:27;;;;;;;8.10;1.80;;;40.50;99.90;;;;;;5035510;28;21100;-81
2023/09/26 11:19:57;;;;;;;3.30;1.70;;;40.90;99.90;;;;;;5052548;28;20437;-80
2023/09/26 11:22:23;;;;;;;3.37;1.80;;;41.00;99.90;;;;;;5058113;28;20504;-82
2023/09/26 11:24:48;;;;;;;9.13;1.90;;;40.90;99.90;;;;;;5052376;28;20474;-82
2023/09/26 11:27:14;;;;;;;2.93;1.57;;;40.00;99.90;;;;;;5053840;28;20448;-81
2023/09/26 11:29:40;;;;;;;1.77;1.40;;;40.30;99.90;;;;;;5052829;28;20642;-81
2023/09/26 11:32:06;;;;;;;6.80;3.80;;;40.50;99.90;;;;;;5050459;28;20249;-80
2023/09/26 11:34:35;;;;;;;1.90;1.47;;;41.20;99.90;;;;;;5047689;28;20484;-81
2023/09/26 11:37:00;;;;;;;2.70;1.40;;;41.50;99.90;;;;;;5051572;28;20264;-81
2023/09/26 11:39:26;;;;;;;2.40;1.47;;;40.60;99.90;;;;;;5048866;28;20518;-82
2023/09/26 11:42:05;;;;;;;3.53;1.60;;;41.00;99.90;;;;;;5053033;28;20202;-82
2023/09/26 11:44:31;;;;;;;4.87;2.40;;;41.10;99.90;;;;;;5048749;28;20239;-80
2023/09/26 11:46:56;;;;;;;3.57;1.77;;;41.80;99.90;;;;;;5044342;28;20440;-81
2023/09/26 11:49:23;;;;;;;3.03;1.80;;;41.90;99.90;;;;;;5049334;28;20749;-82
2023/09/26 11:51:51;;;;;;;3.67;2.30;;;41.70;99.90;;;;;;5051093;28;20205;-80
2023/09/26 11:54:17;;;;;;;2.00;1.43;;;42.10;99.90;;;;;;5053524;28;20514;-80
2023/09/26 11:56:46;;;;;;;2.93;1.77;;;42.40;99.90;;;;;;5051978;28;20448;-81
2023/09/26 11:59:12;;;;;;;4.03;1.90;;;42.70;99.90;;;;;;5055626;28;20174;-80
2023/09/26 12:01:41;;;;;;;3.43;1.70;;;42.80;99.90;;;;;;5049221;28;20456;-80
2023/09/26 12:04:09;;;;;;;5.90;1.70;;;42.50;99.90;;;;;;5039328;28;20811;-78
2023/09/26 12:06:35;;;;;;;3.87;1.50;;;41.90;99.90;;;;;;5035827;28;20436;-81
2023/09/26 12:09:03;;;;;;;2.33;1.57;;;42.10;99.90;;;;;;5051353;28;20431;-81
2023/09/26 12:11:29;;;;;;;4.63;3.17;;;42.30;99.90;;;;;;5050046;28;20643;-82
2023/09/26 12:13:54;;;;;;;3.10;1.87;;;41.70;99.90;;;;;;5051409;28;20460;-81
2023/09/26 12:16:20;;;;;;;2.20;1.50;;;41.70;99.90;;;;;;5032989;28;20205;-81
2023/09/26 12:18:45;;;;;;;2.50;1.60;;;41.80;99.90;;;;;;5052472;28;20186;-81
2023/09/26 12:21:11;;;;;;;4.50;1.90;;;42.00;99.90;;;;;;5050336;28;20209;-81
2023/09/26 12:23:37;;;;;;;2.63;2.03;;;41.90;99.90;;;;;;5049371;28;20265;-81
2023/09/26 12:26:02;;;;;;;8.90;1.87;;;40.40;99.90;;;;;;5055033;28;20666;-81
2023/09/26 12:28:28;;;;;;;2.20;1.60;;;40.20;99.90;;;;;;5046304;28;20212;-80
2023/09/26 12:30:54;;;;;;;4.20;1.90;;;39.70;99.90;;;;;;5049980;28;20211;-79
2023/09/26 12:33:20;;;;;;;1.80;1.50;;;40.20;99.90;;;;;;5054978;28;20206;-81
2023/09/26 12:35:45;;;;;;;2.37;1.60;;;40.40;99.90;;;;;;5052377;28;20296;-81
2023/09/26 12:38:11;;;;;;;2.60;1.53;;;39.70;99.90;;;;;;5060707;28;20522;-80
2023/09/26 12:40:37;;;;;;;2.07;1.40;;;38.60;99.90;;;;;;5054494;28;20273;-80
2023/09/26 12:43:03;;;;;;;4.70;1.97;;;38.60;99.90;;;;;;5051851;28;20248;-81
2023/09/26 12:45:29;;;;;;;2.77;2.03;;;38.50;99.90;;;;;;5032793;28;20790;-81
2023/09/26 12:47:55;;;;;;;4.43;2.00;;;37.60;99.90;;;;;;5050083;28;20967;-79
2023/09/26 12:50:20;;;;;;;7.07;2.20;;;36.70;99.90;;;;;;5038922;28;20444;-79